This is the latest recevied weather packets stored in our database for station/object KB3UQE. If no packets are shown the sender has not sent any weather packets the latest 10 day(s).
| Time | Temp. | Humidity | Pressure | Rain* | Wind** | Luminosity | Snow |
|---|---|---|---|---|---|---|---|
| 1787582618 | 22.78° C | 68% | 1012.2 hPa | 0 mm | - | - | - |
| 1787582016 | 22.22° C | 70% | 1012.2 hPa | 0 mm | - | - | - |
| 1787581413 | 22.22° C | 70% | 1012.2 hPa | 0 mm | - | - | - |
| 1787580811 | 21.67° C | 71% | 1012.2 hPa | 0 mm | - | - | - |
| 1787580208 | 21.11° C | 73% | 1012.2 hPa | 0 mm | - | - | - |
| 1787579606 | 21.11° C | 73% | 1012.2 hPa | 0 mm | - | - | - |
| 1787579003 | 21.11° C | 73% | 1011.9 hPa | 0 mm | - | - | - |
| 1787578400 | 21.11° C | 73% | 1011.9 hPa | 0 mm | - | - | - |
| 1787577797 | 21.11° C | 74% | 1011.9 hPa | 0 mm | - | - | - |
| 1787577194 | 20.56° C | 77% | 1012.2 hPa | 0 mm | - | - | - |
| 1787576592 | 20.56° C | 77% | 1011.9 hPa | 0 mm | - | - | - |
| 1787575989 | 20.56° C | 74% | 1011.9 hPa | 0 mm | - | - | - |
| 1787575387 | 20.56° C | 75% | 1011.9 hPa | 0 mm | - | - | - |
| 1787574784 | 20° C | 79% | 1012.2 hPa | 0 mm | - | - | - |
| 1787574181 | 19.44° C | 80% | 1012.2 hPa | 0 mm | - | - | - |
| 1787573578 | 18.89° C | 80% | 1012.2 hPa | 0 mm | - | - | - |
| 1787572975 | 17.78° C | 87% | 1012.2 hPa | 0 mm | - | - | - |
| 1787572373 | 16.67° C | 90% | 1012.2 hPa | 0 mm | - | - | - |
| 1787571770 | 16.67° C | 91% | 1012.2 hPa | 0 mm | - | - | - |
| 1787571167 | 16.11° C | 92% | 1011.9 hPa | 0 mm | - | - | - |
| 1787570565 | 16.11° C | 93% | 1011.9 hPa | 0 mm | - | - | - |
| 1787569961 | 15.56° C | 94% | 1011.9 hPa | 0 mm | - | - | - |
| 1787569359 | 15° C | 94% | 1011.9 hPa | 0 mm | - | - | - |
| 1787568756 | 15° C | 94% | 1011.9 hPa | 0 mm | - | - | - |
| 1787568153 | 14.44° C | 94% | 1011.9 hPa | 0 mm | - | - | - |
* Rain since midnight (hover to see other rain measurements)
** Current wind speed in m/s (hover to see current wind gust speed)